• Join FlightAware (Why Join?)
  • Login
  • US Flag 
10:19AM EDT


 

Airport Tracker/Info


-or-


 

Live Flight TrackerFlight Track Log ✈ UCA4846 ✈ 24-Oct-2013 ✈ KEWR - KBUF

Flight Track Log - Related Links

Times and Time Zones

All times are in EDT time to prevent confusion due to time zone crossing. See the UCA4846 flight status page for this flight to view local times or setup timezone preferences in your user account.

Time Position Orientation Groundspeed Altitude Reporting Facility
EDT Latitude Longitude Course Direction KTS MPH feet Rate Location/Type
12:32PM 40.9511 -74.6601 305° West  Level Estimated
12:33PM 40.9879 -74.7307 305° West  Level Estimated
12:34PM 41.0247 -74.8012 305° West  Level Estimated
12:35PM 41.0614 -74.8719 305° West  Level Estimated
12:36PM 41.0980 -74.9427 305° West  Level Estimated
12:37PM 41.1346 -75.0135 304° West  Level Estimated
12:38PM 41.1712 -75.0844 304° West  Level Estimated
12:39PM 41.2077 -75.1554 304° West  Level Estimated
12:40PM 41.2442 -75.2265 304° West  Level Estimated
12:41PM 41.2806 -75.2977 304° West  Level Estimated
12:42PM 41.3170 -75.3689 304° West  Level Estimated
12:43PM 41.3533 -75.4402 304° West  Level Estimated
12:44PM 41.3896 -75.5116 304° West  Level Estimated
12:45PM 41.4259 -75.5831 304° West  Level Estimated
12:46PM 41.4621 -75.6546 304° West  Level Estimated
12:47PM 41.4983 -75.7263 304° West  Level Estimated
12:48PM 41.5344 -75.7980 304° West  Level Estimated
12:49PM 41.5705 -75.8698 304° West  Level Estimated
12:50PM 41.6065 -75.9416 304° West  Level Estimated
12:51PM 41.6425 -76.0136 304° West  Level Estimated
12:52PM 41.6784 -76.0856 304° West  Level Estimated
12:53PM 41.7143 -76.1577 304° West  Level Estimated
12:54PM 41.7502 -76.2299 304° West  Level Estimated
12:55PM 41.7860 -76.3022 304° West  Level Estimated
12:56PM 41.8218 -76.3745 304° West  Level Estimated
12:57PM 41.8575 -76.4470 304° West  Level Estimated
12:58PM 41.8932 -76.5195 303° West  Level Estimated
12:59PM 41.9288 -76.5921 303° West  Level Estimated
01:00PM 41.9644 -76.6648 303° West  Level Estimated
01:01PM 41.9999 -76.7375 303° West  Level Estimated
01:02PM 42.0354 -76.8104 303° West  Level Estimated
01:03PM 42.0708 -76.8833 303° West  Level Estimated
01:04PM 42.1062 -76.9563 303° West  Level Estimated
01:05PM 42.1416 -77.0294 303° West  Level Estimated
01:06PM 42.1769 -77.1026 303° West  Level Estimated
01:07PM 42.2121 -77.1758 303° West  Level Estimated
01:08PM 42.2473 -77.2492 303° West  Level Estimated
01:09PM 42.2825 -77.3226 303° West  Level Estimated
01:10PM 42.3176 -77.3961 303° West  Level Estimated
01:11PM 42.3527 -77.4697 303° West  Level Estimated
01:12PM 42.3877 -77.5433 303° West  Level Estimated
01:13PM 42.4227 -77.6171 303° West  Level Estimated
01:14PM 42.4576 -77.6909 303° West  Level Estimated
01:15PM 42.4925 -77.7648 303° West  Level Estimated
01:16PM 42.5273 -77.8388 303° West  Level Estimated
01:17PM 42.5621 -77.9128 303° West  Level Estimated
01:18PM 42.5968 -77.9870 302° West  Level Estimated
01:19PM 42.6315 -78.0612 302° West  Level Estimated
01:20PM 42.6662 -78.1356 302° West  Level Estimated
01:21PM 42.7008 -78.2100 302° West  Level Estimated
01:22PM 42.7353 -78.2844 302° West  Level Estimated
01:23PM 42.7698 -78.3590 302° West  Level Estimated
01:24PM 42.8043 -78.4336 302° West  Level Estimated
01:25PM 42.8387 -78.5084 302° West  Level Estimated
01:26PM 42.8730 -78.5832 302° West  Level Estimated
01:27PM 42.9073 -78.6581 302° West  Level Estimated
01:28PM 42.9404 -78.7306 302° West  Level Estimated
01:29PM 42.9404 -78.7306 216° Southwest  Level Estimated
01:30PM 42.9404 -78.7306 216° Southwest  Level Estimated
01:31PM 42.9404 -78.7306 216° Southwest  Level Estimated
01:32PM 42.9404 -78.7306 216° Southwest  Level Estimated
01:33PM 42.9404 -78.7306 216° Southwest  Level Estimated
01:34PM 42.9404 -78.7306 216° Southwest  Level Estimated
01:35PM 42.9404 -78.7306 216° Southwest  Level Estimated
01:36PM 42.9404 -78.7306 216° Southwest  Level Estimated
01:37PM 42.9404 -78.7306 216° Southwest  Level Estimated
01:38PM 42.9404 -78.7306 216° Southwest  Level Estimated
01:39PM 42.9404 -78.7306 216° Southwest  Level Estimated
01:40PM 42.9404 -78.7306 216° Southwest  Level Estimated
01:41PM 42.9404 -78.7306 216° Southwest  Level Estimated
01:42PM 42.9404 -78.7306 216° Southwest  Level Estimated